Terminal Aerodrome Forecast
Issued by NWS

Home | Current Version | Previous Version | Text Only | Print | Product List | Glossary On
Versions: 1 2 3 4 5 6 7 8 9 10 11 12 13 14 15 16 17 18
000
FTUS43 KDMX 230520
TAFMCW
TAF
KMCW 230520Z 2306/2406 09007KT P6SM BKN120
     FM231200 12010KT P6SM OVC100
     FM231600 14018G26KT P6SM -SHRA SCT060 OVC100
     FM232100 14020G28KT P6SM VCSH BKN060 BKN100
     FM240400 12018G28KT P6SM -TSRA SCT020CB OVC060=

USA.gov is the U.S. government's official web portal to all federal, state and local government web resources and services.